Time;durP1;ratioP1;P1;durP2;ratioP2;P2;SDS_P1;SDS_P2;PMS_P1;PMS_P2;Temp;Humidity;BMP_temperature;BMP_pressure;BME280_temperature;BME280_humidity;BME280_pressure;Samples;Min_cycle;Max_cycle;Signal;HPM_P1;HPM_P2
2022/04/02 00:00:27;;;;;;;4.18;2.70;;;1.10;99.90;;;;;;5043621;28;20059;-78
2022/04/02 00:02:52;;;;;;;7.95;3.10;;;0.70;99.90;;;;;;5045100;28;20032;-78
2022/04/02 00:05:18;;;;;;;6.47;3.13;;;0.70;99.90;;;;;;5041958;28;20547;-78
2022/04/02 00:07:44;;;;;;;4.68;3.08;;;0.70;99.90;;;;;;5044284;28;20040;-78
2022/04/02 00:10:09;;;;;;;4.25;3.05;;;0.80;99.90;;;;;;5048218;28;20512;-78
2022/04/02 00:12:35;;;;;;;5.15;3.05;;;1.10;99.90;;;;;;5044596;28;20148;-78
2022/04/02 00:15:01;;;;;;;5.40;3.10;;;1.40;99.90;;;;;;5040316;28;20116;-78
2022/04/02 00:17:27;;;;;;;5.93;2.80;;;0.60;99.90;;;;;;5069254;28;20138;-78
2022/04/02 00:19:54;;;;;;;3.67;2.83;;;0.60;99.90;;;;;;5041121;28;20495;-78
2022/04/02 00:22:20;;;;;;;4.20;3.03;;;0.60;99.90;;;;;;5040794;28;20036;-78
2022/04/02 00:24:46;;;;;;;5.35;2.72;;;0.60;99.90;;;;;;5048064;28;20043;-78
2022/04/02 00:27:12;;;;;;;7.13;3.05;;;0.60;99.90;;;;;;5048567;28;20033;-78
2022/04/02 00:29:38;;;;;;;3.97;2.83;;;0.50;99.90;;;;;;5043948;28;20045;-78
2022/04/02 00:32:06;;;;;;;3.60;2.72;;;1.00;99.90;;;;;;5047460;28;20044;-78
2022/04/02 00:34:32;;;;;;;5.70;3.30;;;0.50;99.90;;;;;;5042545;28;20114;-79
2022/04/02 00:36:57;;;;;;;6.22;3.75;;;0.50;99.90;;;;;;5043994;28;20479;-78
2022/04/02 00:39:23;;;;;;;5.78;2.97;;;0.50;99.90;;;;;;5047444;28;20553;-78
2022/04/02 00:41:49;;;;;;;8.02;3.25;;;0.50;99.90;;;;;;5048499;28;20033;-77
2022/04/02 00:44:17;;;;;;;4.28;2.78;;;1.00;99.90;;;;;;5044510;28;20041;-78
2022/04/02 00:46:44;;;;;;;5.38;3.13;;;0.40;99.90;;;;;;5046969;28;20048;-78
2022/04/02 00:49:12;;;;;;;5.70;3.00;;;0.40;99.90;;;;;;5035315;28;20037;-78
2022/04/02 00:51:42;;;;;;;6.13;2.90;;;0.40;99.90;;;;;;5035911;28;20039;-77
2022/04/02 00:54:16;;;;;;;5.00;2.95;;;0.40;99.90;;;;;;5044080;28;20045;-77
2022/04/02 00:56:43;;;;;;;4.22;2.65;;;0.30;99.90;;;;;;5047836;28;20482;-77
2022/04/02 00:59:09;;;;;;;5.15;2.88;;;0.40;99.90;;;;;;5040297;28;20045;-78
2022/04/02 01:01:36;;;;;;;6.88;3.08;;;0.40;99.90;;;;;;5045216;28;20047;-77
2022/04/02 01:04:03;;;;;;;4.90;3.03;;;0.40;99.90;;;;;;5041694;28;20061;-77
2022/04/02 01:06:32;;;;;;;5.18;3.10;;;0.30;99.90;;;;;;5051697;28;20068;-78
2022/04/02 01:08:59;;;;;;;4.50;2.80;;;0.30;99.90;;;;;;5045069;28;20044;-78
2022/04/02 01:11:41;;;;;;;8.15;3.08;;;0.30;99.90;;;;;;5043669;28;20037;-78
2022/04/02 01:14:07;;;;;;;4.10;3.00;;;0.30;99.90;;;;;;5045232;28;20388;-78
2022/04/02 01:16:34;;;;;;;4.25;2.53;;;0.30;99.90;;;;;;5036439;28;20553;-78
2022/04/02 01:19:00;;;;;;;4.80;2.65;;;0.70;99.90;;;;;;5037753;28;20574;-77
2022/04/02 01:21:29;;;;;;;5.70;2.78;;;0.30;99.90;;;;;;5046272;28;20076;-77
2022/04/02 01:23:56;;;;;;;5.15;2.85;;;0.30;99.90;;;;;;5046740;28;20079;-77
2022/04/02 01:26:22;;;;;;;6.10;2.72;;;0.30;99.90;;;;;;5044683;28;20139;-77
2022/04/02 01:28:54;;;;;;;5.00;3.13;;;0.20;99.90;;;;;;5044238;28;20546;-77
2022/04/02 01:31:21;;;;;;;5.45;2.72;;;0.30;99.90;;;;;;5041339;28;20037;-77
2022/04/02 01:33:50;;;;;;;3.88;2.80;;;0.20;99.90;;;;;;5044091;28;20042;-78
2022/04/02 01:36:17;;;;;;;10.27;3.35;;;0.30;99.90;;;;;;5044623;28;20033;-77
2022/04/02 01:38:43;;;;;;;7.90;2.92;;;0.30;99.90;;;;;;5044777;28;20120;-77
2022/04/02 01:41:09;;;;;;;4.57;2.72;;;0.20;99.90;;;;;;5037713;28;20103;-78
2022/04/02 01:43:35;;;;;;;5.32;2.83;;;0.40;99.90;;;;;;5046976;28;20032;-77
2022/04/02 01:46:03;;;;;;;4.95;2.92;;;0.20;99.90;;;;;;5041160;28;20116;-78
2022/04/02 01:48:30;;;;;;;6.47;2.92;;;0.20;99.90;;;;;;5045165;28;20050;-78
2022/04/02 01:50:56;;;;;;;6.22;2.72;;;0.20;99.90;;;;;;5034597;28;20087;-77
2022/04/02 01:53:24;;;;;;;7.03;3.00;;;0.20;99.90;;;;;;5041457;28;20043;-78
2022/04/02 01:55:50;;;;;;;5.00;3.30;;;0.30;99.90;;;;;;5024713;28;20037;-78
2022/04/02 01:58:17;;;;;;;6.43;3.03;;;0.20;99.90;;;;;;5046298;28;20398;-77
2022/04/02 02:00:43;;;;;;;8.13;3.15;;;0.70;99.90;;;;;;5044399;28;20044;-78
2022/04/02 02:03:09;;;;;;;4.95;2.97;;;0.10;99.90;;;;;;5039213;28;20067;-78
2022/04/02 02:05:35;;;;;;;5.93;2.90;;;0.30;99.90;;;;;;5045734;28;20068;-77
2022/04/02 02:08:05;;;;;;;4.22;2.80;;;0.40;99.90;;;;;;5046936;28;20098;-78
2022/04/02 02:10:32;;;;;;;4.22;2.40;;;0.10;99.90;;;;;;5038185;28;20093;-77
2022/04/02 02:12:57;;;;;;;5.70;3.05;;;0.50;99.90;;;;;;5046614;28;20053;-78
2022/04/02 02:15:24;;;;;;;3.58;2.60;;;0.00;99.90;;;;;;5045792;28;20033;-77
2022/04/02 02:17:51;;;;;;;4.53;2.55;;;0.00;99.90;;;;;;5045130;28;20041;-77
2022/04/02 02:20:18;;;;;;;7.05;3.20;;;0.50;99.90;;;;;;5040189;28;20037;-77
2022/04/02 02:22:46;;;;;;;5.03;2.83;;;0.00;99.90;;;;;;5039366;28;20029;-78
2022/04/02 02:25:14;;;;;;;4.93;3.00;;;0.10;99.90;;;;;;5044087;28;20083;-78
2022/04/02 02:27:42;;;;;;;7.55;3.38;;;0.10;99.90;;;;;;5043821;28;20045;-77
2022/04/02 02:30:09;;;;;;;4.05;2.63;;;0.00;99.90;;;;;;5041983;28;20500;-77
2022/04/02 02:32:36;;;;;;;4.90;2.92;;;-0.10;99.90;;;;;;5046233;28;20174;-77
2022/04/02 02:38:10;;;;;;;4.03;2.80;;;-0.10;99.90;;;;;;4975854;28;20101;-78
2022/04/02 02:40:38;;;;;;;5.90;2.90;;;-0.10;99.90;;;;;;5034855;28;20100;-78
2022/04/02 02:43:05;;;;;;;4.25;2.90;;;0.00;99.90;;;;;;5049755;28;20079;-78
2022/04/02 02:45:31;;;;;;;4.57;3.17;;;-0.10;99.90;;;;;;5040150;28;20116;-78
2022/04/02 02:47:58;;;;;;;4.85;2.67;;;-0.10;99.90;;;;;;5051003;28;20502;-78
2022/04/02 02:50:25;;;;;;;4.57;3.15;;;-0.20;99.90;;;;;;5043792;28;20143;-78
2022/04/02 02:52:51;;;;;;;4.43;2.67;;;-0.20;99.90;;;;;;5049484;28;20512;-78
2022/04/02 02:55:18;;;;;;;6.03;3.47;;;-0.20;99.90;;;;;;5048521;28;20029;-78
2022/04/02 02:57:45;;;;;;;6.10;2.80;;;-0.20;99.90;;;;;;5042981;28;20041;-78
2022/04/02 03:00:12;;;;;;;5.60;3.28;;;0.30;99.90;;;;;;5047967;28;20116;-77
2022/04/02 03:02:39;;;;;;;4.68;2.80;;;-0.20;99.90;;;;;;5043659;28;20094;-78
2022/04/02 03:05:12;;;;;;;6.53;3.40;;;-0.20;99.90;;;;;;5044115;28;20060;-78
2022/04/02 03:07:57;;;;;;;4.57;2.78;;;0.00;99.90;;;;;;5043639;28;20045;-78
2022/04/02 03:10:25;;;;;;;20.48;3.53;;;-0.20;99.90;;;;;;5044295;28;20166;-78
2022/04/02 03:12:52;;;;;;;4.55;2.85;;;-0.20;99.90;;;;;;5038516;28;20040;-78
2022/04/02 03:15:18;;;;;;;3.92;2.90;;;0.00;99.90;;;;;;5047496;28;20398;-77
2022/04/02 03:17:45;;;;;;;4.68;3.05;;;-0.20;99.90;;;;;;5030516;28;20036;-78
2022/04/02 03:20:12;;;;;;;6.55;3.38;;;-0.20;99.90;;;;;;5046928;28;20073;-78
2022/04/02 03:22:40;;;;;;;6.22;2.90;;;-0.20;99.90;;;;;;5041980;28;20120;-78
2022/04/02 03:25:08;;;;;;;5.65;3.03;;;-0.20;99.90;;;;;;5071675;28;20148;-78
2022/04/02 03:27:33;;;;;;;5.05;3.00;;;-0.20;99.90;;;;;;5046877;28;20036;-78
2022/04/02 03:29:59;;;;;;;4.35;2.83;;;-0.20;99.90;;;;;;5048744;28;20379;-78
2022/04/02 03:32:25;;;;;;;5.82;3.20;;;0.30;99.90;;;;;;5047401;28;20048;-78
2022/04/02 03:34:50;;;;;;;7.82;3.20;;;-0.20;99.90;;;;;;5045985;28;20045;-78
2022/04/02 03:37:16;;;;;;;4.82;3.10;;;-0.30;99.90;;;;;;5049249;28;20269;-78
2022/04/02 03:39:42;;;;;;;5.50;2.85;;;-0.30;99.90;;;;;;5047014;28;20512;-78
2022/04/02 03:42:09;;;;;;;8.07;2.80;;;-0.30;99.90;;;;;;5042813;28;20041;-78
2022/04/02 03:44:35;;;;;;;4.07;2.80;;;-0.30;99.90;;;;;;5048500;28;20094;-78
2022/04/02 03:47:10;;;;;;;5.22;3.20;;;-0.30;99.90;;;;;;5046319;28;20546;-78
2022/04/02 03:49:37;;;;;;;8.25;3.58;;;-0.30;99.90;;;;;;5045046;28;20042;-77
2022/04/02 03:52:03;;;;;;;12.38;3.65;;;-0.30;99.90;;;;;;5044701;28;20033;-78
2022/04/02 03:54:29;;;;;;;6.80;3.15;;;-0.40;99.90;;;;;;5046484;28;20037;-78
2022/04/02 03:56:54;;;;;;;7.20;3.15;;;-0.10;99.90;;;;;;5048473;28;20118;-78
2022/04/02 03:59:20;;;;;;;4.82;3.00;;;-0.40;99.90;;;;;;5049834;28;20041;-78
2022/04/02 04:01:46;;;;;;;5.75;3.03;;;-0.40;99.90;;;;;;5044982;28;20052;-78
2022/04/02 04:04:13;;;;;;;4.00;2.92;;;-0.50;99.90;;;;;;5014313;28;20044;-78
2022/04/02 04:06:39;;;;;;;5.45;3.17;;;0.00;99.90;;;;;;5045992;28;20055;-77
2022/04/02 04:09:04;;;;;;;4.53;3.20;;;-0.30;99.90;;;;;;5045059;28;20056;-77
2022/04/02 04:11:30;;;;;;;5.82;3.08;;;-0.40;99.90;;;;;;5039744;28;20124;-78
2022/04/02 04:13:59;;;;;;;5.72;3.25;;;-0.20;99.90;;;;;;5038217;28;20041;-78
2022/04/02 04:16:25;;;;;;;6.20;3.22;;;-0.40;99.90;;;;;;5031619;28;20041;-78
2022/04/02 04:18:51;;;;;;;7.60;3.40;;;-0.40;99.90;;;;;;5044792;28;20044;-78
2022/04/02 04:21:17;;;;;;;10.23;3.85;;;-0.50;99.90;;;;;;5022882;28;20522;-77
2022/04/02 04:23:43;;;;;;;9.18;3.67;;;-0.40;99.90;;;;;;5030197;28;20049;-78
2022/04/02 04:26:09;;;;;;;3.80;2.70;;;-0.10;99.90;;;;;;5031171;28;20044;-78
2022/04/02 04:28:37;;;;;;;6.85;3.28;;;-0.50;99.90;;;;;;5045159;28;20410;-78
2022/04/02 04:31:04;;;;;;;9.27;3.17;;;-0.40;99.90;;;;;;5043937;28;20053;-78
2022/04/02 04:33:30;;;;;;;5.47;3.03;;;-0.40;99.90;;;;;;5041388;28;20033;-78
2022/04/02 04:35:56;;;;;;;6.95;3.20;;;0.30;99.90;;;;;;5031136;28;20030;-78
2022/04/02 04:38:22;;;;;;;7.85;3.42;;;0.30;99.90;;;;;;5041454;28;20046;-78
2022/04/02 04:40:47;;;;;;;4.97;3.40;;;-0.40;99.90;;;;;;5038107;28;20041;-78
2022/04/02 04:43:13;;;;;;;5.43;3.40;;;0.20;99.90;;;;;;5029760;28;20192;-78
2022/04/02 04:45:39;;;;;;;5.93;3.17;;;-0.30;99.90;;;;;;5042530;28;20419;-78
2022/04/02 04:48:05;;;;;;;4.97;3.10;;;-0.20;99.90;;;;;;5018087;28;20411;-78
2022/04/02 04:50:31;;;;;;;8.38;3.63;;;-0.30;99.90;;;;;;5027572;28;20045;-79
2022/04/02 04:52:57;;;;;;;4.95;3.30;;;-0.30;99.90;;;;;;5026555;28;20063;-78
2022/04/02 04:55:24;;;;;;;5.85;3.00;;;-0.30;99.90;;;;;;5041733;28;21299;-78
2022/04/02 04:57:50;;;;;;;7.50;3.83;;;-0.30;99.90;;;;;;5041627;28;20127;-78
2022/04/02 05:00:16;;;;;;;4.80;3.30;;;0.30;99.90;;;;;;5034764;28;20534;-78
2022/04/02 05:02:45;;;;;;;6.03;3.20;;;-0.40;99.90;;;;;;5054893;28;20042;-79
2022/04/02 05:05:14;;;;;;;6.78;3.97;;;-0.30;99.90;;;;;;5026459;28;20079;-78
2022/04/02 05:07:44;;;;;;;4.68;3.25;;;-0.20;99.90;;;;;;5027734;28;20499;-78
2022/04/02 05:10:10;;;;;;;7.97;3.92;;;-0.40;99.90;;;;;;5024443;28;20078;-78
2022/04/02 05:12:37;;;;;;;4.72;3.40;;;-0.30;99.90;;;;;;5034692;28;20045;-78
2022/04/02 05:15:04;;;;;;;9.65;3.95;;;0.20;99.90;;;;;;5030763;28;20042;-78
2022/04/02 05:17:31;;;;;;;7.50;3.35;;;-0.40;99.90;;;;;;5034000;28;20069;-78
2022/04/02 05:19:57;;;;;;;6.70;4.53;;;-0.30;99.90;;;;;;5045313;28;20037;-78
2022/04/02 05:22:23;;;;;;;5.22;3.22;;;-0.30;99.90;;;;;;5024262;28;20517;-78
2022/04/02 05:24:49;;;;;;;6.90;3.83;;;0.90;99.90;;;;;;5030216;28;20037;-78
2022/04/02 05:27:15;;;;;;;7.22;3.45;;;-0.30;99.90;;;;;;5032338;28;20033;-78
2022/04/02 05:29:40;;;;;;;6.97;3.25;;;-0.30;99.90;;;;;;5031843;28;20120;-78
2022/04/02 05:32:07;;;;;;;7.68;4.07;;;-0.30;99.90;;;;;;5031189;28;20071;-78
2022/04/02 05:34:33;;;;;;;11.57;3.90;;;-0.30;99.90;;;;;;5031304;28;20501;-78
2022/04/02 05:36:58;;;;;;;9.25;3.60;;;0.30;99.90;;;;;;5020634;28;20034;-78
2022/04/02 05:39:24;;;;;;;7.60;3.38;;;-0.20;99.90;;;;;;5047597;28;20037;-78
2022/04/02 05:41:51;;;;;;;12.43;3.45;;;-0.20;99.90;;;;;;5030516;28;20033;-78
2022/04/02 05:44:17;;;;;;;8.95;4.07;;;0.30;99.90;;;;;;5027833;28;20041;-78
2022/04/02 05:46:43;;;;;;;7.22;3.75;;;0.00;99.90;;;;;;5032091;28;20049;-78
2022/04/02 05:49:09;;;;;;;5.90;3.30;;;-0.20;99.90;;;;;;5014519;28;20054;-78
2022/04/02 05:51:35;;;;;;;6.63;3.97;;;-0.20;99.90;;;;;;5037756;28;20102;-78
2022/04/02 05:54:01;;;;;;;6.15;3.50;;;-0.10;99.90;;;;;;5030792;28;20052;-78
2022/04/02 05:56:27;;;;;;;8.75;4.00;;;-0.10;99.90;;;;;;5034956;28;20037;-78
2022/04/02 05:58:54;;;;;;;6.75;4.18;;;-0.10;99.90;;;;;;5029305;28;20030;-78
2022/04/02 06:01:21;;;;;;;7.93;3.75;;;0.00;99.90;;;;;;5039251;28;20513;-78
2022/04/02 06:03:47;;;;;;;8.55;4.07;;;-0.10;99.90;;;;;;5019686;28;20121;-78
2022/04/02 06:06:13;;;;;;;5.70;3.40;;;0.30;99.90;;;;;;5021045;28;20065;-78
2022/04/02 06:08:39;;;;;;;6.10;3.83;;;0.00;99.90;;;;;;5028440;28;20049;-78
2022/04/02 06:11:08;;;;;;;9.50;4.05;;;0.00;99.90;;;;;;5044964;28;20050;-78
2022/04/02 06:13:34;;;;;;;6.55;4.32;;;0.10;99.90;;;;;;5038738;28;20033;-78
2022/04/02 06:16:00;;;;;;;6.05;3.90;;;0.10;99.90;;;;;;5030114;28;20087;-78
2022/04/02 06:18:25;;;;;;;9.18;4.10;;;0.20;99.90;;;;;;5029911;28;20041;-78
2022/04/02 06:20:51;;;;;;;6.45;4.22;;;0.20;99.90;;;;;;5036109;28;20037;-78
2022/04/02 06:23:18;;;;;;;10.27;4.20;;;0.20;99.90;;;;;;5012137;28;20605;-78
2022/04/02 06:25:44;;;;;;;7.57;3.95;;;0.20;99.90;;;;;;5032359;28;20521;-78
2022/04/02 06:28:10;;;;;;;6.25;3.80;;;0.30;99.90;;;;;;5032778;28;20048;-78
2022/04/02 06:30:36;;;;;;;6.55;3.67;;;0.30;99.90;;;;;;5033142;28;20049;-78
2022/04/02 06:33:04;;;;;;;8.35;4.10;;;0.30;99.90;;;;;;5044327;28;20029;-78
2022/04/02 06:35:30;;;;;;;6.32;4.03;;;0.80;99.90;;;;;;5040940;28;20045;-78
2022/04/02 06:37:56;;;;;;;7.22;3.72;;;1.10;99.90;;;;;;5033530;28;20462;-78
2022/04/02 06:40:24;;;;;;;8.32;3.92;;;0.40;99.90;;;;;;5024685;28;20045;-77
2022/04/02 06:42:50;;;;;;;6.68;3.88;;;0.50;99.90;;;;;;5023152;28;20030;-78
2022/04/02 06:45:16;;;;;;;9.70;3.50;;;0.50;99.90;;;;;;5026622;28;20100;-78
2022/04/02 06:47:42;;;;;;;7.78;3.92;;;0.60;99.90;;;;;;5051703;28;20057;-78
2022/04/02 06:50:11;;;;;;;5.68;4.00;;;0.70;99.90;;;;;;5020006;28;20054;-78
2022/04/02 06:52:37;;;;;;;7.65;3.65;;;0.70;99.90;;;;;;5020373;28;20536;-78
2022/04/02 06:55:03;;;;;;;10.63;4.03;;;0.80;99.90;;;;;;5019347;28;20121;-78
2022/04/02 06:57:29;;;;;;;9.18;3.60;;;0.80;99.90;;;;;;5027552;28;20061;-78
2022/04/02 06:59:55;;;;;;;6.88;4.30;;;0.90;99.90;;;;;;5022085;28;20080;-78
2022/04/02 07:02:21;;;;;;;7.00;3.92;;;1.10;99.90;;;;;;5016781;28;20045;-78
2022/04/02 07:04:48;;;;;;;9.93;4.22;;;1.00;99.90;;;;;;5015642;28;20116;-78
2022/04/02 07:07:14;;;;;;;9.55;4.13;;;1.10;99.90;;;;;;5030744;28;20073;-78
2022/04/02 07:09:40;;;;;;;5.93;3.80;;;1.30;99.90;;;;;;5017146;28;20081;-78
2022/04/02 07:12:07;;;;;;;7.15;3.90;;;1.20;99.90;;;;;;5024788;28;20033;-78
2022/04/02 07:14:33;;;;;;;8.23;3.83;;;1.30;99.90;;;;;;5029417;28;20572;-78
2022/04/02 07:16:59;;;;;;;7.25;3.83;;;1.40;99.90;;;;;;5032924;28;20076;-78
2022/04/02 07:19:25;;;;;;;7.13;3.92;;;1.50;99.90;;;;;;5016957;28;20068;-78
2022/04/02 07:21:53;;;;;;;8.63;3.63;;;1.60;99.90;;;;;;5024589;28;20036;-78
2022/04/02 07:24:20;;;;;;;6.22;3.50;;;2.80;99.90;;;;;;5020754;28;20091;-78
2022/04/02 07:26:46;;;;;;;6.75;4.10;;;1.80;99.90;;;;;;5020289;28;20046;-78
2022/04/02 07:29:16;;;;;;;8.27;4.00;;;2.00;99.90;;;;;;5024724;28;20068;-78
2022/04/02 07:31:45;;;;;;;6.78;3.95;;;2.20;99.90;;;;;;5024961;28;20045;-78
2022/04/02 07:34:13;;;;;;;7.72;4.05;;;2.60;99.90;;;;;;5031448;28;20037;-78
2022/04/02 07:36:48;;;;;;;8.90;3.67;;;2.90;99.90;;;;;;5029048;28;20645;-78
2022/04/02 07:39:35;;;;;;;9.57;4.25;;;3.30;99.90;;;;;;5032718;28;20091;-78
2022/04/02 07:42:33;;;;;;;8.10;4.03;;;3.70;99.90;;;;;;5066274;28;20104;-78
2022/04/02 07:45:08;;;;;;;9.48;3.60;;;4.00;99.90;;;;;;5023304;28;20561;-78
2022/04/02 07:47:39;;;;;;;8.30;3.97;;;4.20;99.90;;;;;;5022235;28;20051;-78
2022/04/02 07:50:08;;;;;;;6.32;3.60;;;4.60;99.90;;;;;;5029649;28;20061;-78
2022/04/02 07:52:36;;;;;;;7.50;4.03;;;4.80;99.90;;;;;;5031919;28;20041;-79
2022/04/02 07:55:07;;;;;;;8.48;3.70;;;5.10;99.90;;;;;;5043662;28;20042;-79
2022/04/02 07:57:39;;;;;;;6.77;3.67;;;5.40;99.90;;;;;;5019781;28;20067;-79
2022/04/02 08:00:09;;;;;;;5.63;3.50;;;5.70;99.90;;;;;;5037608;28;20037;-78
2022/04/02 08:02:42;;;;;;;5.72;3.55;;;6.00;99.90;;;;;;5033109;28;20323;-78
2022/04/02 08:05:11;;;;;;;7.18;3.58;;;6.30;99.90;;;;;;5039361;28;20580;-78
2022/04/02 08:07:49;;;;;;;6.65;3.33;;;6.70;99.90;;;;;;5021260;28;20046;-78
2022/04/02 08:10:17;;;;;;;7.32;3.60;;;6.80;99.90;;;;;;5032145;28;20499;-78
2022/04/02 08:12:44;;;;;;;4.82;3.35;;;7.30;99.90;;;;;;5014508;28;20038;-78
2022/04/02 08:15:21;;;;;;;7.35;2.92;;;7.40;99.90;;;;;;5031656;28;20116;-78
2022/04/02 08:17:53;;;;;;;4.25;2.90;;;7.60;99.90;;;;;;5033002;28;20037;-78
2022/04/02 08:20:19;;;;;;;3.80;2.72;;;8.00;99.90;;;;;;5044673;28;20041;-78
2022/04/02 08:22:46;;;;;;;4.43;2.90;;;8.00;97.10;;;;;;5032687;28;20502;-78
2022/04/02 08:25:13;;;;;;;4.65;3.05;;;8.20;98.00;;;;;;5032546;28;20060;-78
2022/04/02 08:27:41;;;;;;;3.85;2.80;;;8.20;96.40;;;;;;5033046;28;20501;-78
2022/04/02 08:30:13;;;;;;;3.92;2.58;;;8.40;97.10;;;;;;5031194;28;20525;-78
2022/04/02 08:33:04;;;;;;;4.90;2.78;;;8.70;96.10;;;;;;5031282;28;20128;-78
2022/04/02 08:35:51;;;;;;;3.40;2.53;;;9.00;95.60;;;;;;5040970;28;20033;-78
2022/04/02 08:38:44;;;;;;;4.57;2.95;;;9.40;93.40;;;;;;5028353;28;20049;-78
2022/04/02 08:41:13;;;;;;;4.63;3.00;;;9.60;92.60;;;;;;5015308;28;20568;-78
2022/04/02 08:43:50;;;;;;;5.35;2.70;;;9.50;90.40;;;;;;5032103;28;20034;-79
2022/04/02 08:46:57;;;;;;;4.60;2.50;;;9.60;91.10;;;;;;5038377;28;20116;-79
2022/04/02 08:49:44;;;;;;;3.60;2.60;;;9.60;90.80;;;;;;5018527;28;20053;-79
2022/04/02 08:52:20;;;;;;;6.32;2.58;;;9.80;91.50;;;;;;5017162;28;20492;-78
2022/04/02 08:55:14;;;;;;;4.15;2.40;;;9.70;86.60;;;;;;5040441;28;20465;-78
2022/04/02 08:57:50;;;;;;;3.30;2.40;;;9.80;87.60;;;;;;5030657;28;20033;-79
2022/04/02 09:00:23;;;;;;;4.20;2.50;;;10.50;88.40;;;;;;5029146;28;20513;-79
2022/04/02 09:03:06;;;;;;;3.35;2.25;;;10.80;88.60;;;;;;5038784;28;20045;-79
2022/04/02 09:05:32;;;;;;;4.30;2.30;;;10.40;81.90;;;;;;5026844;28;20068;-79
2022/04/02 09:08:18;;;;;;;3.97;2.20;;;10.20;81.50;;;;;;5036228;28;20080;-78
2022/04/02 09:10:49;;;;;;;4.07;2.28;;;9.90;79.50;;;;;;5027148;28;20064;-79
2022/04/02 09:13:33;;;;;;;5.15;2.40;;;10.10;79.80;;;;;;5039605;28;20052;-79
2022/04/02 09:16:13;;;;;;;5.35;2.65;;;10.20;79.30;;;;;;5017598;28;20699;-79
2022/04/02 09:18:46;;;;;;;2.60;2.35;;;9.80;80.90;;;;;;5012114;28;20042;-79
2022/04/02 09:21:29;;;;;;;3.97;2.42;;;9.60;82.10;;;;;;5005338;28;20345;-79
2022/04/02 09:24:11;;;;;;;4.55;2.22;;;9.50;81.80;;;;;;5026712;28;20092;-79
2022/04/02 09:27:10;;;;;;;5.78;2.28;;;9.80;83.30;;;;;;5017570;28;20152;-79
2022/04/02 09:29:57;;;;;;;3.10;2.50;;;9.30;77.20;;;;;;5024005;28;20043;-79
2022/04/02 09:32:49;;;;;;;4.47;2.47;;;9.00;79.30;;;;;;5017351;28;20119;-79
2022/04/02 09:35:34;;;;;;;3.35;2.42;;;8.60;80.10;;;;;;5024083;28;20049;-79
2022/04/02 09:38:12;;;;;;;2.72;2.22;;;8.80;78.30;;;;;;5022135;28;20047;-78
2022/04/02 09:41:06;;;;;;;3.35;2.60;;;9.20;78.30;;;;;;5025310;28;20086;-79
2022/04/02 09:43:38;;;;;;;2.88;1.98;;;9.80;78.70;;;;;;5028461;28;20561;-79
2022/04/02 09:46:28;;;;;;;2.65;2.13;;;9.50;75.70;;;;;;5038953;28;20120;-79
2022/04/02 09:49:07;;;;;;;4.80;2.35;;;9.20;76.60;;;;;;5033424;28;20053;-80
2022/04/02 09:51:34;;;;;;;3.40;2.20;;;8.30;77.60;;;;;;5022967;28;20534;-79
2022/04/02 09:54:27;;;;;;;4.78;2.10;;;7.80;78.50;;;;;;5013741;28;20484;-79
2022/04/02 09:57:06;;;;;;;6.82;2.28;;;7.10;81.50;;;;;;5040174;28;20053;-79
2022/04/02 09:59:44;;;;;;;5.43;2.50;;;6.60;92.20;;;;;;5044316;28;20045;-79
2022/04/02 10:02:19;;;;;;;3.42;2.03;;;6.00;94.00;;;;;;5026225;28;20069;-79
2022/04/02 10:04:55;;;;;;;2.25;1.70;;;5.80;96.00;;;;;;5031835;28;20049;-79
2022/04/02 10:07:58;;;;;;;2.22;2.00;;;5.30;94.20;;;;;;5029792;28;20054;-78
2022/04/02 10:10:28;;;;;;;3.08;1.88;;;5.00;94.20;;;;;;5066116;28;20041;-79
2022/04/02 10:12:56;;;;;;;4.18;1.95;;;4.90;94.90;;;;;;5015549;28;20037;-80
2022/04/02 10:15:25;;;;;;;2.70;2.00;;;4.70;96.40;;;;;;5034606;28;20068;-80
2022/04/02 10:17:52;;;;;;;2.75;2.08;;;4.60;96.30;;;;;;5001960;28;20099;-79
2022/04/02 10:20:28;;;;;;;3.08;2.17;;;4.60;95.80;;;;;;5034169;28;20037;-79
2022/04/02 10:23:29;;;;;;;5.72;1.90;;;4.60;95.70;;;;;;5031289;28;20053;-79
2022/04/02 10:26:17;;;;;;;2.58;1.77;;;4.70;96.40;;;;;;5030352;28;20053;-79
2022/04/02 10:28:55;;;;;;;2.83;2.10;;;4.70;96.10;;;;;;5024532;28;20038;-78
2022/04/02 10:31:33;;;;;;;4.20;2.13;;;4.80;95.40;;;;;;5021783;28;20037;-79
2022/04/02 10:34:16;;;;;;;2.85;1.92;;;4.80;95.50;;;;;;5022744;28;20041;-79
2022/04/02 10:36:54;;;;;;;2.88;1.67;;;5.00;95.50;;;;;;5025356;28;20104;-79
2022/04/02 10:39:23;;;;;;;2.72;1.90;;;5.50;95.20;;;;;;5037247;28;20153;-79
2022/04/02 10:41:54;;;;;;;2.13;1.73;;;6.10;94.50;;;;;;5007912;28;20037;-79
2022/04/02 10:44:34;;;;;;;3.58;2.13;;;6.60;91.40;;;;;;5037655;28;20079;-79
2022/04/02 10:47:03;;;;;;;3.70;2.15;;;6.90;91.30;;;;;;5020055;28;20052;-79
2022/04/02 10:49:34;;;;;;;2.58;2.05;;;7.60;92.60;;;;;;5024235;28;20415;-79
2022/04/02 10:52:02;;;;;;;2.67;2.20;;;8.50;91.20;;;;;;5030854;28;20052;-79
2022/04/02 10:54:29;;;;;;;2.28;2.00;;;8.60;90.70;;;;;;5016285;28;20498;-78
2022/04/02 10:56:55;;;;;;;3.28;1.63;;;8.10;89.90;;;;;;5029018;28;20045;-79
2022/04/02 10:59:22;;;;;;;1.80;1.50;;;7.40;87.10;;;;;;5032200;28;20099;-79
2022/04/02 11:01:53;;;;;;;3.53;2.05;;;7.10;87.10;;;;;;5030390;28;20045;-79
2022/04/02 11:04:21;;;;;;;3.70;2.20;;;6.80;89.00;;;;;;5041453;28;20053;-79
2022/04/02 11:06:51;;;;;;;4.00;1.75;;;6.70;89.70;;;;;;5012761;28;20072;-79
2022/04/02 11:09:39;;;;;;;4.13;2.03;;;6.70;89.40;;;;;;5016262;28;20517;-78
2022/04/02 11:12:08;;;;;;;4.43;1.70;;;6.80;88.50;;;;;;5030032;28;20060;-79
2022/04/02 11:14:51;;;;;;;5.13;1.92;;;6.70;87.30;;;;;;5029374;28;20037;-77
2022/04/02 11:17:44;;;;;;;3.33;1.60;;;6.70;85.40;;;;;;5012048;28;20115;-78
2022/04/02 11:20:42;;;;;;;2.53;1.60;;;7.10;86.40;;;;;;5031484;28;20500;-78
2022/04/02 11:23:17;;;;;;;5.05;1.63;;;7.00;81.80;;;;;;4977170;28;20141;-79
2022/04/02 11:25:54;;;;;;;2.35;1.70;;;7.00;84.00;;;;;;5036488;28;20057;-79
2022/04/02 11:28:24;;;;;;;2.95;1.88;;;6.90;83.30;;;;;;5032118;28;20551;-78
2022/04/02 11:31:05;;;;;;;2.88;1.83;;;6.80;82.70;;;;;;5009743;28;20116;-79
2022/04/02 11:33:32;;;;;;;3.03;1.90;;;6.60;85.50;;;;;;5024090;28;20524;-79
2022/04/02 11:35:59;;;;;;;2.92;1.92;;;6.50;88.20;;;;;;5035541;28;20659;-78
2022/04/02 11:38:39;;;;;;;2.53;1.60;;;6.50;89.80;;;;;;5023621;28;20048;-78
2022/04/02 11:41:11;;;;;;;4.93;1.83;;;6.60;86.30;;;;;;5036754;28;20079;-79
2022/04/02 11:43:40;;;;;;;3.27;1.70;;;6.70;85.90;;;;;;5032928;28;20080;-78
2022/04/02 11:46:12;;;;;;;2.80;1.95;;;6.70;87.10;;;;;;5015412;28;20582;-78
2022/04/02 11:48:54;;;;;;;3.67;1.70;;;6.90;89.70;;;;;;5032303;28;20037;-78
2022/04/02 11:51:28;;;;;;;3.65;1.88;;;7.30;89.10;;;;;;5038250;28;20777;-79
2022/04/02 11:54:04;;;;;;;2.50;1.98;;;7.40;89.80;;;;;;5030485;28;20033;-79
2022/04/02 11:56:43;;;;;;;2.85;1.95;;;7.30;84.70;;;;;;5017576;28;20073;-78
2022/04/02 11:59:13;;;;;;;4.95;1.90;;;7.20;86.70;;;;;;5029059;28;20077;-78
2022/04/02 12:01:50;;;;;;;7.50;2.20;;;7.00;88.50;;;;;;5036990;28;20037;-79
2022/04/02 12:04:17;;;;;;;2.53;1.90;;;6.60;90.60;;;;;;5031854;28;20124;-78
2022/04/02 12:06:45;;;;;;;2.72;2.00;;;6.30;91.60;;;;;;5037125;28;20125;-78
2022/04/02 12:09:26;;;;;;;4.90;2.15;;;5.90;91.90;;;;;;4997388;28;20037;-78
2022/04/02 12:12:01;;;;;;;2.85;1.70;;;5.70;92.50;;;;;;5025506;28;20124;-78
2022/04/02 12:14:28;;;;;;;3.97;1.88;;;5.50;92.90;;;;;;5028127;28;20037;-78
2022/04/02 12:17:00;;;;;;;1.88;1.55;;;5.30;92.70;;;;;;5039639;28;20123;-78
2022/04/02 12:19:53;;;;;;;3.70;2.00;;;5.40;92.20;;;;;;5026708;28;20071;-79
2022/04/02 12:22:30;;;;;;;2.65;1.90;;;5.20;91.90;;;;;;5023680;28;20323;-79
2022/04/02 12:25:02;;;;;;;2.50;1.77;;;5.10;91.00;;;;;;5015555;28;20141;-78
2022/04/02 12:27:30;;;;;;;4.07;1.83;;;5.10;91.80;;;;;;5025582;28;20092;-78
2022/04/02 12:29:58;;;;;;;3.15;1.92;;;5.20;91.90;;;;;;5026360;28;20679;-78
2022/04/02 12:32:32;;;;;;;4.82;3.03;;;5.20;92.00;;;;;;5026746;28;20029;-79
2022/04/02 12:35:03;;;;;;;8.85;4.40;;;5.30;93.60;;;;;;5015369;28;20496;-79
2022/04/02 12:37:31;;;;;;;5.18;3.67;;;5.40;93.70;;;;;;5021504;28;20076;-78
2022/04/02 12:39:59;;;;;;;6.57;3.00;;;5.40;93.10;;;;;;5030939;28;20380;-78
2022/04/02 12:42:36;;;;;;;8.18;3.30;;;5.50;93.20;;;;;;5038073;28;20120;-78
2022/04/02 12:45:22;;;;;;;6.00;2.83;;;5.70;92.90;;;;;;5041386;28;20048;-79
2022/04/02 12:48:18;;;;;;;5.07;2.65;;;6.00;93.30;;;;;;5040617;28;20061;-79
2022/04/02 12:50:57;;;;;;;7.05;2.55;;;6.40;93.00;;;;;;5029119;28;20124;-77
2022/04/02 12:53:38;;;;;;;4.53;1.85;;;6.50;91.10;;;;;;5029308;28;20076;-78
2022/04/02 12:56:16;;;;;;;3.97;2.50;;;6.30;90.70;;;;;;5000746;28;20049;-79
2022/04/02 12:58:44;;;;;;;2.55;1.83;;;6.20;90.40;;;;;;5028114;28;20069;-78
2022/04/02 13:01:21;;;;;;;3.30;2.30;;;6.00;90.00;;;;;;5035665;28;20045;-78
2022/04/02 13:03:59;;;;;;;3.15;1.88;;;5.80;88.40;;;;;;5010355;28;20789;-78
2022/04/02 13:06:27;;;;;;;2.70;2.00;;;5.70;90.50;;;;;;5038568;28;20053;-78
2022/04/02 13:09:04;;;;;;;2.50;2.10;;;5.60;90.70;;;;;;5023769;28;20128;-79
2022/04/02 13:11:59;;;;;;;2.38;2.15;;;5.70;90.90;;;;;;5042858;28;20540;-79
2022/04/02 13:14:48;;;;;;;3.90;2.15;;;5.60;91.40;;;;;;5059886;28;20111;-77
2022/04/02 13:17:18;;;;;;;3.83;2.15;;;5.60;91.30;;;;;;5026149;28;20064;-78